createdAt,value
2018-04-27T00:00:37.318Z,25.97
2018-04-27T00:03:06.433Z,24.23
2018-04-27T00:05:35.609Z,20.10
2018-04-27T00:08:04.840Z,30.07
2018-04-27T00:10:33.921Z,27.53
2018-04-27T00:13:03.033Z,24.07
2018-04-27T00:15:32.127Z,20.87
2018-04-27T00:18:01.241Z,22.23
2018-04-27T00:20:30.350Z,28.90
2018-04-27T00:22:59.461Z,26.30
2018-04-27T00:25:28.581Z,24.07
2018-04-27T00:27:57.694Z,22.50
2018-04-27T00:30:26.790Z,25.53
2018-04-27T00:32:55.902Z,28.73
2018-04-27T00:35:25.030Z,22.90
2018-04-27T00:37:54.139Z,30.83
2018-04-27T00:40:23.341Z,39.63
2018-04-27T00:42:52.517Z,25.43
2018-04-27T00:45:21.717Z,31.33
2018-04-27T00:47:50.871Z,31.83
2018-04-27T00:50:20.016Z,26.07
2018-04-27T00:52:54.998Z,31.37
2018-04-27T00:55:24.146Z,26.83
2018-04-27T00:57:53.229Z,22.50
2018-04-27T01:00:22.422Z,21.40
2018-04-27T01:02:51.642Z,23.93
2018-04-27T01:05:20.738Z,26.13
2018-04-27T01:07:49.826Z,22.97
2018-04-27T01:10:19.830Z,23.70
2018-04-27T01:12:49.021Z,28.07
2018-04-27T01:15:18.140Z,26.73
2018-04-27T01:17:47.220Z,27.97
2018-04-27T01:20:16.329Z,27.57
2018-04-27T01:22:45.435Z,29.50
2018-04-27T01:25:14.551Z,29.20
2018-04-27T01:27:43.662Z,22.63
2018-04-27T01:30:12.789Z,28.63
2018-04-27T01:32:41.897Z,28.70
2018-04-27T01:35:11.082Z,29.60
2018-04-27T01:37:40.262Z,26.43
2018-04-27T01:40:09.372Z,25.90
2018-04-27T01:42:38.468Z,28.20
2018-04-27T01:45:07.577Z,25.13
2018-04-27T01:47:36.745Z,35.90
2018-04-27T01:50:05.853Z,24.67
2018-04-27T01:52:35.003Z,26.53
2018-04-27T01:55:04.141Z,23.63
2018-04-27T01:57:33.253Z,22.70
2018-04-27T02:00:02.337Z,32.90
2018-04-27T02:02:31.459Z,27.00
2018-04-27T02:05:00.612Z,24.97
2018-04-27T02:07:29.703Z,30.20
2018-04-27T02:09:58.800Z,27.50
2018-04-27T02:12:27.895Z,21.90
2018-04-27T02:14:56.990Z,31.53
2018-04-27T02:17:26.101Z,26.37
2018-04-27T02:19:55.208Z,23.27
2018-04-27T02:22:24.352Z,32.13
2018-04-27T02:24:53.467Z,22.53
2018-04-27T02:27:22.555Z,25.17
2018-04-27T02:29:51.746Z,19.10
2018-04-27T02:32:20.855Z,27.37
2018-04-27T02:34:49.968Z,25.83
2018-04-27T02:39:53.857Z,24.13
2018-04-27T02:42:23.010Z,24.80
2018-04-27T02:44:52.155Z,24.93
2018-04-27T02:47:21.360Z,24.30
2018-04-27T02:49:50.452Z,27.40
2018-04-27T02:52:19.612Z,19.20
2018-04-27T02:54:48.717Z,25.60
2018-04-27T02:57:17.930Z,22.90
2018-04-27T02:59:47.146Z,23.37
2018-04-27T03:02:16.253Z,27.27
2018-04-27T03:04:45.354Z,23.53
2018-04-27T03:07:14.460Z,23.87
2018-04-27T03:09:43.562Z,21.30
2018-04-27T03:12:12.657Z,19.80
2018-04-27T03:14:41.788Z,23.03
2018-04-27T03:17:10.897Z,24.67
2018-04-27T03:19:40.019Z,28.03
2018-04-27T03:22:09.172Z,25.20
2018-04-27T03:24:39.242Z,20.00
2018-04-27T03:27:08.354Z,23.70
2018-04-27T03:29:37.441Z,23.23
2018-04-27T03:32:06.566Z,26.60
2018-04-27T03:34:35.761Z,24.07
2018-04-27T03:37:04.861Z,20.90
2018-04-27T03:39:33.978Z,26.17
2018-04-27T03:42:03.150Z,23.53
2018-04-27T03:44:32.262Z,22.57
2018-04-27T03:47:01.476Z,23.70
2018-04-27T03:49:30.633Z,27.77
2018-04-27T03:51:59.792Z,21.07
2018-04-27T03:54:28.914Z,21.43
2018-04-27T03:56:58.113Z,26.60
2018-04-27T03:59:33.212Z,18.10
2018-04-27T04:02:08.193Z,19.10
2018-04-27T04:04:43.378Z,19.37
2018-04-27T04:07:12.513Z,21.70
2018-04-27T04:09:42.633Z,27.90
2018-04-27T04:12:11.829Z,26.27
2018-04-27T04:14:40.954Z,29.33
2018-04-27T04:17:10.192Z,32.90
2018-04-27T04:19:39.241Z,20.83
2018-04-27T04:22:09.232Z,25.13
2018-04-27T04:24:38.365Z,33.13
2018-04-27T04:27:08.429Z,29.90
2018-04-27T04:29:37.564Z,25.77
2018-04-27T04:32:06.660Z,22.57
2018-04-27T04:34:35.854Z,21.07
2018-04-27T04:37:05.007Z,20.93
2018-04-27T04:39:35.153Z,19.33
2018-04-27T04:42:04.328Z,21.23
2018-04-27T04:44:33.445Z,18.97
2018-04-27T04:47:02.609Z,20.80
2018-04-27T04:49:31.742Z,16.23
2018-04-27T04:52:00.838Z,25.33
2018-04-27T04:54:30.923Z,21.40
2018-04-27T04:57:00.119Z,27.73
2018-04-27T04:59:29.214Z,20.63
2018-04-27T05:01:58.399Z,31.77
2018-04-27T05:04:27.511Z,21.87
2018-04-27T05:06:56.606Z,33.50
2018-04-27T05:09:25.801Z,18.67
2018-04-27T05:11:54.926Z,15.47
2018-04-27T05:14:24.038Z,34.10
2018-04-27T05:16:53.245Z,21.93
2018-04-27T05:19:22.344Z,26.60
2018-04-27T05:21:51.562Z,22.90
2018-04-27T05:24:20.833Z,23.03
2018-04-27T05:26:49.870Z,25.60
2018-04-27T05:29:18.968Z,24.43
2018-04-27T05:31:47.205Z,32.13
2018-04-27T05:34:14.669Z,17.67
2018-04-27T05:36:42.137Z,23.63
2018-04-27T05:39:09.597Z,13.60
2018-04-27T05:41:37.134Z,26.67
2018-04-27T05:44:04.707Z,19.53
2018-04-27T05:46:32.141Z,20.63
2018-04-27T05:48:59.714Z,25.17
2018-04-27T05:51:27.145Z,22.60
2018-04-27T05:53:54.618Z,13.40
2018-04-27T05:56:22.178Z,22.93
2018-04-27T05:58:49.630Z,22.80
2018-04-27T06:01:17.090Z,16.60
2018-04-27T06:03:56.558Z,25.40
2018-04-27T06:06:24.891Z,27.77
2018-04-27T06:08:52.383Z,22.60
2018-04-27T06:11:20.627Z,28.33
2018-04-27T06:13:48.188Z,28.60
2018-04-27T06:16:15.666Z,30.80
2018-04-27T06:18:43.204Z,18.20
2018-04-27T06:21:10.674Z,24.10
2018-04-27T06:23:38.205Z,18.87
2018-04-27T06:26:05.654Z,24.13
2018-04-27T06:28:33.942Z,26.20
2018-04-27T06:31:01.506Z,26.40
2018-04-27T06:33:29.060Z,29.30
2018-04-27T06:35:56.611Z,24.23
2018-04-27T06:38:24.082Z,34.20
2018-04-27T06:40:51.634Z,20.33
2018-04-27T06:43:19.106Z,29.80
2018-04-27T06:45:46.675Z,28.67
2018-04-27T06:48:14.924Z,30.57
2018-04-27T06:50:43.337Z,29.33
2018-04-27T06:53:11.579Z,26.33
2018-04-27T06:55:39.125Z,24.07
2018-04-27T06:58:06.598Z,36.10
2018-04-27T07:00:34.098Z,36.97
2018-04-27T07:03:01.596Z,26.03
2018-04-27T07:05:29.055Z,34.13
2018-04-27T07:07:56.610Z,36.63
2018-04-27T07:10:24.085Z,28.03
2018-04-27T07:12:51.625Z,27.43
2018-04-27T07:15:19.390Z,48.73
2018-04-27T07:17:46.938Z,34.83
2018-04-27T07:20:14.378Z,36.57
2018-04-27T07:22:41.871Z,33.20
2018-04-27T07:25:09.408Z,28.00
2018-04-27T07:27:36.860Z,20.13
2018-04-27T07:30:04.425Z,20.80
2018-04-27T07:32:31.855Z,19.23
2018-04-27T07:34:59.331Z,26.83
2018-04-27T07:37:26.773Z,23.13
2018-04-27T07:39:54.237Z,18.87
2018-04-27T07:42:21.672Z,18.47
2018-04-27T07:44:49.141Z,26.00
2018-04-27T07:47:16.607Z,27.17
2018-04-27T07:49:44.112Z,20.77
2018-04-27T07:52:11.576Z,18.17
2018-04-27T07:54:39.077Z,25.53
2018-04-27T07:57:06.513Z,16.23
2018-04-27T07:59:33.979Z,25.77
2018-04-27T08:02:01.545Z,28.17
2018-04-27T08:04:29.018Z,21.47
2018-04-27T08:06:56.555Z,19.50
2018-04-27T08:09:23.985Z,22.07
2018-04-27T08:11:51.443Z,21.13
2018-04-27T08:14:18.924Z,20.67
2018-04-27T08:16:46.374Z,27.33
2018-04-27T08:19:13.837Z,20.57
2018-04-27T08:21:42.032Z,20.10
2018-04-27T08:24:09.456Z,15.60
2018-04-27T08:26:37.030Z,18.90
2018-04-27T08:29:04.503Z,19.57
2018-04-27T08:31:32.110Z,18.40
2018-04-27T08:33:59.594Z,19.77
2018-04-27T08:36:27.057Z,14.03
2018-04-27T08:38:54.511Z,16.40
2018-04-27T08:41:23.464Z,16.17
2018-04-27T08:43:50.963Z,14.30
2018-04-27T08:46:18.434Z,19.00
2018-04-27T08:48:45.876Z,20.13
2018-04-27T08:51:13.423Z,17.60
2018-04-27T08:53:40.899Z,13.07
2018-04-27T08:56:08.434Z,21.40
2018-04-27T08:58:35.898Z,16.60
2018-04-27T09:01:03.366Z,15.97
2018-04-27T09:03:30.805Z,19.87
2018-04-27T09:05:58.287Z,17.37
2018-04-27T09:08:25.933Z,21.10
2018-04-27T09:10:53.503Z,18.93
2018-04-27T09:13:20.941Z,17.53
2018-04-27T09:15:48.518Z,9.47
2018-04-27T09:18:16.054Z,13.40
2018-04-27T09:20:43.513Z,18.17
2018-04-27T09:23:11.070Z,10.63
2018-04-27T09:25:38.531Z,11.57
2018-04-27T09:28:06.014Z,10.30
2018-04-27T09:30:34.275Z,19.20
2018-04-27T09:33:02.528Z,9.83
2018-04-27T09:35:29.963Z,15.20
2018-04-27T09:37:57.430Z,13.23
2018-04-27T09:40:26.006Z,14.80
2018-04-27T09:42:53.470Z,12.87
2018-04-27T09:45:20.940Z,11.23
2018-04-27T09:47:49.351Z,11.30
2018-04-27T09:50:16.870Z,8.53
2018-04-27T09:52:44.448Z,17.40
2018-04-27T09:55:11.987Z,8.63
2018-04-27T09:57:39.540Z,9.70
2018-04-27T10:00:06.993Z,12.53
2018-04-27T10:02:34.557Z,7.93
2018-04-27T10:05:02.010Z,13.00
2018-04-27T10:07:29.559Z,13.50
2018-04-27T10:09:57.027Z,14.57
2018-04-27T10:12:24.481Z,8.70
2018-04-27T10:14:51.953Z,18.80
2018-04-27T10:17:19.480Z,9.57
2018-04-27T10:19:46.943Z,17.47
2018-04-27T10:22:14.434Z,10.53
2018-04-27T10:24:42.684Z,7.87
2018-04-27T10:27:10.145Z,12.47
2018-04-27T10:29:37.592Z,10.03
2018-04-27T10:32:05.153Z,10.83
2018-04-27T10:34:32.638Z,18.40
2018-04-27T10:37:00.883Z,16.53
2018-04-27T10:39:28.337Z,7.17
2018-04-27T10:41:55.895Z,13.43
2018-04-27T10:44:23.330Z,8.30
2018-04-27T10:46:50.899Z,13.60
2018-04-27T10:49:18.334Z,10.23
2018-04-27T10:51:45.837Z,11.03
2018-04-27T10:54:14.097Z,7.67
2018-04-27T10:56:41.553Z,9.43
2018-04-27T10:59:09.027Z,11.13
2018-04-27T11:01:37.270Z,12.43
2018-04-27T11:04:04.750Z,12.17
2018-04-27T11:06:33.953Z,7.63
2018-04-27T11:09:02.149Z,12.07
2018-04-27T11:11:29.621Z,9.13
2018-04-27T11:13:57.111Z,13.77
2018-04-27T11:16:24.562Z,11.17
2018-04-27T11:18:52.142Z,10.17
2018-04-27T11:21:20.396Z,20.87
2018-04-27T11:23:47.842Z,17.00
2018-04-27T11:26:15.315Z,8.53
2018-04-27T11:28:42.901Z,11.17
2018-04-27T11:31:10.302Z,10.63
2018-04-27T11:33:37.778Z,35.00
2018-04-27T11:36:05.235Z,13.27
2018-04-27T11:38:32.689Z,8.63
2018-04-27T11:41:00.241Z,9.73
2018-04-27T11:43:27.678Z,17.43
2018-04-27T11:45:55.123Z,9.43
2018-04-27T11:48:22.598Z,10.60
2018-04-27T11:50:50.034Z,8.67
2018-04-27T11:53:17.737Z,12.47
2018-04-27T11:55:45.165Z,7.87
2018-04-27T11:58:12.635Z,11.80
2018-04-27T12:00:40.111Z,6.50
2018-04-27T12:03:08.351Z,8.47
2018-04-27T12:05:35.826Z,11.57
2018-04-27T12:08:03.280Z,8.03
2018-04-27T12:10:30.841Z,12.53
2018-04-27T12:12:58.409Z,14.83
2018-04-27T12:15:25.943Z,6.67
2018-04-27T12:17:53.501Z,13.30
2018-04-27T12:20:20.970Z,9.60
2018-04-27T12:22:48.438Z,8.47
2018-04-27T12:25:15.980Z,7.63
2018-04-27T12:27:43.545Z,11.07
2018-04-27T12:30:11.758Z,6.30
2018-04-27T12:32:39.216Z,19.93
2018-04-27T12:35:07.438Z,9.20
2018-04-27T12:37:34.894Z,8.30
2018-04-27T12:40:02.466Z,5.97
2018-04-27T12:42:29.916Z,10.10
2018-04-27T12:44:57.374Z,6.10
2018-04-27T12:47:24.924Z,10.67
2018-04-27T12:49:52.374Z,6.13
2018-04-27T12:52:19.852Z,5.37
2018-04-27T12:54:48.308Z,7.43
2018-04-27T12:57:15.749Z,11.40
2018-04-27T12:59:43.326Z,7.10
2018-04-27T13:02:10.775Z,4.43
2018-04-27T13:04:38.325Z,9.30
2018-04-27T13:07:05.793Z,5.83
2018-04-27T13:09:34.204Z,9.73
2018-04-27T13:12:02.434Z,12.83
2018-04-27T13:14:29.894Z,6.70
2018-04-27T13:16:57.472Z,7.67
2018-04-27T13:19:25.129Z,10.90
2018-04-27T13:21:52.587Z,10.20
2018-04-27T13:24:20.121Z,5.37
2018-04-27T13:26:47.671Z,11.43
2018-04-27T13:29:15.171Z,7.60
2018-04-27T13:31:42.577Z,7.17
2018-04-27T13:34:10.028Z,7.67
2018-04-27T13:36:37.506Z,11.53
2018-04-27T13:39:05.901Z,14.83
2018-04-27T13:41:34.133Z,12.63
2018-04-27T13:44:01.625Z,8.00
2018-04-27T13:46:29.077Z,5.67
2018-04-27T13:48:56.531Z,4.90
2018-04-27T13:51:26.022Z,12.00
2018-04-27T13:53:53.492Z,4.50
2018-04-27T13:56:20.986Z,7.70
2018-04-27T13:58:49.320Z,11.80
2018-04-27T14:01:16.758Z,5.93
2018-04-27T14:03:44.229Z,5.67
2018-04-27T14:06:11.682Z,8.43
2018-04-27T14:08:39.144Z,8.50
2018-04-27T14:11:06.593Z,9.23
2018-04-27T14:13:34.065Z,7.63
2018-04-27T14:16:01.611Z,5.37
2018-04-27T14:18:29.056Z,14.43
2018-04-27T14:20:56.512Z,5.63
2018-04-27T14:23:23.969Z,8.53
2018-04-27T14:25:51.417Z,7.57
2018-04-27T14:28:18.861Z,7.80
2018-04-27T14:30:46.338Z,7.30
2018-04-27T14:33:13.799Z,10.63
2018-04-27T14:35:41.353Z,7.27
2018-04-27T14:38:08.813Z,9.00
2018-04-27T14:40:37.296Z,9.40
2018-04-27T14:43:04.870Z,12.23
2018-04-27T14:45:33.133Z,5.97
2018-04-27T14:48:00.594Z,16.50
2018-04-27T14:50:28.863Z,5.60
2018-04-27T14:52:56.443Z,6.43
2018-04-27T14:55:23.982Z,6.30
2018-04-27T14:57:51.539Z,10.30
2018-04-27T15:00:19.947Z,9.20
2018-04-27T15:02:48.165Z,6.03
2018-04-27T15:05:15.639Z,12.30
2018-04-27T15:07:43.185Z,7.23
2018-04-27T15:10:10.646Z,6.43
2018-04-27T15:12:38.093Z,5.03
2018-04-27T15:15:05.558Z,9.90
2018-04-27T15:17:33.035Z,3.37
2018-04-27T15:20:00.600Z,7.97
2018-04-27T15:22:28.847Z,14.97
2018-04-27T15:24:56.330Z,6.67
2018-04-27T15:27:23.779Z,5.20
2018-04-27T15:29:52.751Z,3.27
2018-04-27T15:32:22.461Z,8.37
2018-04-27T15:34:50.016Z,4.93
2018-04-27T15:37:17.470Z,7.47
2018-04-27T15:39:44.963Z,6.27
2018-04-27T15:42:13.199Z,7.83
2018-04-27T15:44:40.657Z,5.40
2018-04-27T15:47:08.204Z,9.63
2018-04-27T15:49:35.662Z,8.30
2018-04-27T15:52:03.191Z,4.50
2018-04-27T15:54:30.578Z,5.40
2018-04-27T15:56:58.250Z,11.07
2018-04-27T15:59:25.719Z,10.30
2018-04-27T16:01:53.253Z,12.30
2018-04-27T16:04:20.962Z,3.77
2018-04-27T16:06:49.295Z,3.37
2018-04-27T16:09:17.327Z,7.53
2018-04-27T16:11:44.730Z,6.53
2018-04-27T16:14:12.203Z,10.77
2018-04-27T16:16:40.449Z,8.90
2018-04-27T16:19:09.512Z,4.97
2018-04-27T16:21:37.018Z,6.50
2018-04-27T16:24:04.469Z,6.53
2018-04-27T16:26:32.008Z,10.30
2018-04-27T16:28:59.444Z,4.40
2018-04-27T16:31:27.844Z,5.70
2018-04-27T16:33:55.311Z,8.20
2018-04-27T16:36:22.764Z,9.33
2018-04-27T16:38:50.202Z,4.70
2018-04-27T16:41:17.753Z,7.40
2018-04-27T16:43:49.015Z,6.70
2018-04-27T16:46:16.829Z,5.47
2018-04-27T16:48:44.487Z,6.53
2018-04-27T16:51:12.162Z,6.73
2018-04-27T16:53:39.675Z,6.27
2018-04-27T16:56:09.171Z,8.37
2018-04-27T16:58:36.620Z,14.13
2018-04-27T17:01:04.062Z,16.37
2018-04-27T17:03:31.534Z,17.87
2018-04-27T17:05:58.998Z,14.37
2018-04-27T17:08:27.222Z,6.37
2018-04-27T17:10:54.695Z,7.63
2018-04-27T17:13:23.130Z,8.33
2018-04-27T17:15:51.361Z,7.60
2018-04-27T17:18:18.858Z,7.40
2018-04-27T17:20:47.070Z,4.97
2018-04-27T17:23:14.523Z,6.33
2018-04-27T17:25:42.240Z,5.47
2018-04-27T17:28:10.463Z,8.43
2018-04-27T17:30:37.935Z,10.80
2018-04-27T17:33:05.410Z,4.50
2018-04-27T17:35:32.945Z,5.73
2018-04-27T17:38:00.667Z,11.43
2018-04-27T17:40:28.532Z,16.40
2018-04-27T17:42:56.722Z,8.77
2018-04-27T17:45:24.186Z,9.27
2018-04-27T17:47:52.152Z,6.20
2018-04-27T17:50:19.661Z,9.37
2018-04-27T17:52:47.870Z,5.90
2018-04-27T17:55:16.622Z,5.83
2018-04-27T17:57:44.826Z,7.00
2018-04-27T18:00:12.300Z,7.40
2018-04-27T18:02:39.752Z,7.80
2018-04-27T18:05:07.473Z,7.03
2018-04-27T18:07:35.724Z,11.23
2018-04-27T18:10:04.144Z,5.87
2018-04-27T18:12:31.628Z,6.47
2018-04-27T18:14:59.098Z,5.63
2018-04-27T18:17:29.895Z,6.03
2018-04-27T18:19:59.339Z,10.30
2018-04-27T18:22:26.897Z,8.17
2018-04-27T18:24:54.460Z,10.60
2018-04-27T18:27:22.901Z,11.57
2018-04-27T18:29:50.387Z,4.60
2018-04-27T18:32:17.846Z,4.97
2018-04-27T18:34:45.311Z,15.03
2018-04-27T18:37:12.861Z,4.73
2018-04-27T18:39:40.307Z,10.73
2018-04-27T18:42:10.199Z,8.00
2018-04-27T18:44:37.716Z,12.13
2018-04-27T18:47:05.146Z,10.80
2018-04-27T18:49:32.939Z,5.67
2018-04-27T18:52:01.174Z,6.70
2018-04-27T18:54:28.651Z,8.27
2018-04-27T18:56:56.190Z,8.40
2018-04-27T18:59:23.652Z,8.57
2018-04-27T19:01:52.100Z,14.03
2018-04-27T19:04:20.551Z,7.23
2018-04-27T19:06:48.992Z,4.97
2018-04-27T19:09:16.536Z,7.23
2018-04-27T19:11:44.089Z,17.03
2018-04-27T19:14:13.591Z,13.60
2018-04-27T19:16:41.792Z,7.37
2018-04-27T19:19:09.337Z,18.20
2018-04-27T19:21:36.788Z,7.40
2018-04-27T19:24:04.350Z,5.77
2018-04-27T19:26:31.913Z,14.17
2018-04-27T19:29:00.321Z,7.03
2018-04-27T19:31:27.787Z,7.27
2018-04-27T19:33:55.236Z,6.97
2018-04-27T19:36:22.673Z,5.43
2018-04-27T19:38:52.838Z,4.60
2018-04-27T19:41:20.534Z,6.50
2018-04-27T19:43:48.073Z,6.60
2018-04-27T19:46:15.529Z,10.30
2018-04-27T19:48:43.034Z,8.03
2018-04-27T19:51:10.537Z,8.83
2018-04-27T19:53:38.895Z,11.00
2018-04-27T19:56:06.343Z,8.40
2018-04-27T19:58:36.732Z,9.50
2018-04-27T20:01:04.954Z,6.77
2018-04-27T20:03:32.706Z,10.50
2018-04-27T20:06:04.161Z,16.93
2018-04-27T20:08:35.346Z,14.97
2018-04-27T20:11:02.819Z,6.73
2018-04-27T20:13:30.549Z,6.43
2018-04-27T20:15:59.035Z,13.80
2018-04-27T20:18:27.322Z,8.40
2018-04-27T20:20:59.110Z,9.93
2018-04-27T20:23:29.292Z,7.97
2018-04-27T20:25:59.393Z,10.20
2018-04-27T20:28:30.220Z,8.87
2018-04-27T20:30:57.690Z,8.27
2018-04-27T20:33:25.285Z,6.03
2018-04-27T20:35:58.536Z,7.33
2018-04-27T20:38:25.985Z,9.90
2018-04-27T20:40:53.458Z,12.67
2018-04-27T20:43:24.609Z,9.73
2018-04-27T20:45:55.089Z,11.37
2018-04-27T20:48:25.369Z,13.40
2018-04-27T20:51:00.265Z,9.23
2018-04-27T20:53:30.535Z,18.90
2018-04-27T20:56:03.261Z,7.80
2018-04-27T20:58:30.722Z,15.60
2018-04-27T21:00:58.185Z,14.53
2018-04-27T21:03:25.937Z,9.90
2018-04-27T21:05:53.392Z,15.40
2018-04-27T21:08:20.858Z,12.33
2018-04-27T21:10:48.413Z,10.40
2018-04-27T21:13:15.981Z,7.53
2018-04-27T21:15:43.542Z,9.40
2018-04-27T21:18:11.992Z,10.87
2018-04-27T21:20:39.464Z,8.93
2018-04-27T21:23:06.913Z,11.57
2018-04-27T21:25:35.309Z,9.37
2018-04-27T21:28:06.113Z,9.03
2018-04-27T21:30:33.692Z,5.90
2018-04-27T21:33:08.980Z,8.47
2018-04-27T21:35:46.338Z,7.90
2018-04-27T21:38:19.664Z,10.33
2018-04-27T21:40:47.158Z,14.43
2018-04-27T21:43:14.628Z,7.60
2018-04-27T21:45:42.085Z,10.97
2018-04-27T21:48:09.539Z,9.07
2018-04-27T21:50:37.035Z,14.07
2018-04-27T21:53:04.558Z,15.40
2018-04-27T21:55:32.118Z,9.27
2018-04-27T21:58:08.373Z,13.70
2018-04-27T22:00:35.837Z,13.00
2018-04-27T22:03:03.371Z,9.53
2018-04-27T22:05:44.526Z,12.83
2018-04-27T22:08:13.670Z,14.63
2018-04-27T22:10:41.212Z,16.03
2018-04-27T22:13:09.619Z,16.80
2018-04-27T22:15:39.827Z,20.90
2018-04-27T22:18:08.186Z,19.60
2018-04-27T22:20:45.663Z,14.50
2018-04-27T22:23:13.301Z,14.93
2018-04-27T22:25:44.336Z,17.33
2018-04-27T22:28:12.638Z,13.60
2018-04-27T22:30:43.548Z,15.50
2018-04-27T22:33:18.876Z,22.07
2018-04-27T22:35:56.104Z,22.70
2018-04-27T22:38:45.109Z,16.20
2018-04-27T22:41:13.469Z,21.53
2018-04-27T22:43:42.838Z,16.63
2018-04-27T22:46:12.128Z,24.83
2018-04-27T22:51:43.944Z,15.50
2018-04-27T23:07:53.228Z,18.20
2018-04-27T23:10:21.493Z,45.93
2018-04-27T23:12:58.890Z,43.50
2018-04-27T23:15:26.340Z,28.97
2018-04-27T23:17:53.870Z,24.20
2018-04-27T23:20:22.379Z,10.43
2018-04-27T23:22:51.656Z,28.60
2018-04-27T23:25:21.096Z,20.40
2018-04-27T23:27:50.070Z,28.60
2018-04-27T23:30:19.026Z,18.60
2018-04-27T23:32:46.691Z,14.10
2018-04-27T23:35:14.436Z,11.80
2018-04-27T23:37:42.664Z,14.60
2018-04-27T23:40:10.110Z,11.33
2018-04-27T23:42:37.568Z,20.50
2018-04-27T23:45:05.014Z,9.63
2018-04-27T23:47:32.473Z,11.33
2018-04-27T23:49:59.914Z,19.30
2018-04-27T23:52:27.402Z,15.90
2018-04-27T23:54:54.841Z,14.50
2018-04-27T23:57:23.009Z,11.60
